METAR Data

Data at: 1741 UTC 21 Nov 2018

METAR for:KORH (Worcester Muni, MA, US)
Text:KORH 211654Z 22014KT 10SM SCT036 OVC100 01/M04 A2986 RMK AO2 SLP124 T00061044
Temperature: 0.6°C ( 33°F)
Dewpoint: -4.4°C ( 24°F) [RH = 69%]
Pressure (altimeter):29.86 inches Hg (1011.3 mb) [Sea level pressure: 1012.4 mb]
Winds:from the SW (220 degrees) at 16 MPH (14 knots; 7.2 m/s)
Visibility:10 or more sm (16+ km)
Ceiling:10000 feet AGL
Clouds: scattered clouds at 3600 feet AGL, overcast cloud deck at 10000 feet AGL